createdAt,value
2018-01-12T00:00:05.306Z,8.40
2018-01-12T00:02:34.183Z,8.40
2018-01-12T00:05:03.004Z,8.30
2018-01-12T00:07:31.857Z,8.30
2018-01-12T00:10:00.684Z,8.30
2018-01-12T00:12:29.514Z,8.20
2018-01-12T00:14:59.126Z,8.10
2018-01-12T00:17:28.754Z,8.00
2018-01-12T00:19:57.601Z,8.00
2018-01-12T00:22:26.450Z,7.90
2018-01-12T00:24:55.479Z,7.80
2018-01-12T00:27:24.310Z,7.80
2018-01-12T00:29:53.165Z,7.80
2018-01-12T00:32:22.775Z,7.80
2018-01-12T00:34:52.406Z,7.80
2018-01-12T00:37:21.248Z,7.80
2018-01-12T00:39:50.094Z,7.80
2018-01-12T00:42:18.951Z,7.70
2018-01-12T00:44:48.586Z,7.70
2018-01-12T00:47:17.423Z,7.70
2018-01-12T00:49:47.076Z,7.50
2018-01-12T00:52:15.919Z,7.50
2018-01-12T00:54:44.750Z,7.50
2018-01-12T00:57:13.608Z,7.50
2018-01-12T00:59:43.277Z,7.70
2018-01-12T01:02:12.853Z,7.70
2018-01-12T01:04:41.674Z,7.60
2018-01-12T01:07:10.552Z,7.70
2018-01-12T01:09:39.393Z,7.70
2018-01-12T01:12:09.032Z,7.70
2018-01-12T01:14:37.874Z,7.60
2018-01-12T01:17:06.720Z,7.60
2018-01-12T01:19:35.557Z,7.50
2018-01-12T01:22:04.399Z,7.40
2018-01-12T01:24:34.123Z,7.40
2018-01-12T01:27:02.974Z,7.40
2018-01-12T01:29:32.604Z,7.20
2018-01-12T01:32:01.438Z,7.10
2018-01-12T01:34:31.091Z,7.40
2018-01-12T01:37:00.757Z,7.30
2018-01-12T01:39:31.223Z,7.40
2018-01-12T01:42:00.827Z,7.30
2018-01-12T01:44:29.662Z,7.30
2018-01-12T01:46:58.526Z,7.40
2018-01-12T01:49:28.192Z,6.90
2018-01-12T01:51:57.112Z,6.90
2018-01-12T01:54:25.938Z,6.90
2018-01-12T01:56:54.817Z,6.90
2018-01-12T01:59:24.407Z,6.80
2018-01-12T02:01:53.279Z,6.70
2018-01-12T02:04:22.342Z,6.80
2018-01-12T02:06:51.222Z,6.80
2018-01-12T02:09:20.075Z,6.80
2018-01-12T02:11:51.294Z,6.90
2018-01-12T02:14:20.155Z,6.90
2018-01-12T02:16:49.010Z,7.00
2018-01-12T02:19:17.857Z,6.80
2018-01-12T02:21:47.334Z,6.70
2018-01-12T02:24:16.171Z,6.80
2018-01-12T02:26:45.778Z,7.10
2018-01-12T02:29:15.396Z,7.20
2018-01-12T02:31:45.046Z,7.20
2018-01-12T02:34:13.922Z,7.20
2018-01-12T02:36:42.766Z,7.20
2018-01-12T02:39:11.623Z,7.20
2018-01-12T02:41:40.455Z,7.20
2018-01-12T02:44:09.294Z,7.20
2018-01-12T02:46:38.134Z,6.90
2018-01-12T02:49:07.035Z,6.90
2018-01-12T02:51:35.863Z,6.90
2018-01-12T02:54:04.838Z,6.90
2018-01-12T02:56:34.514Z,6.90
2018-01-12T02:59:03.415Z,6.80
2018-01-12T03:01:32.299Z,7.00
2018-01-12T03:04:01.138Z,7.00
2018-01-12T03:06:30.988Z,7.20
2018-01-12T03:08:59.810Z,7.20
2018-01-12T03:11:28.648Z,7.20
2018-01-12T03:13:58.290Z,7.20
2018-01-12T03:16:27.151Z,7.20
2018-01-12T03:18:56.756Z,7.30
2018-01-12T03:21:26.438Z,7.30
2018-01-12T03:23:55.281Z,7.20
2018-01-12T03:26:24.130Z,7.20
2018-01-12T03:28:53.787Z,7.20
2018-01-12T03:31:23.395Z,7.30
2018-01-12T03:33:53.093Z,7.20
2018-01-12T03:36:21.953Z,7.30
2018-01-12T03:38:51.594Z,7.20
2018-01-12T03:41:20.446Z,7.20
2018-01-12T03:43:49.286Z,7.20
2018-01-12T03:46:18.896Z,7.30
2018-01-12T03:48:47.734Z,7.20
2018-01-12T03:51:16.570Z,7.30
2018-01-12T03:53:45.414Z,7.30
2018-01-12T03:56:14.293Z,7.30
2018-01-12T03:58:43.138Z,7.30
2018-01-12T04:01:11.979Z,7.30
2018-01-12T04:03:40.832Z,7.10
2018-01-12T04:06:09.706Z,7.00
2018-01-12T04:08:38.574Z,7.00
2018-01-12T04:11:07.406Z,7.00
2018-01-12T04:13:36.238Z,7.10
2018-01-12T04:16:05.090Z,7.10
2018-01-12T04:18:33.934Z,7.10
2018-01-12T04:21:04.073Z,7.10
2018-01-12T04:23:32.921Z,7.10
2018-01-12T04:26:01.779Z,7.10
2018-01-12T04:28:30.624Z,7.10
2018-01-12T04:31:00.226Z,7.00
2018-01-12T04:33:29.829Z,7.00
2018-01-12T04:35:59.437Z,7.00
2018-01-12T04:38:29.055Z,6.90
2018-01-12T04:40:57.919Z,6.90
2018-01-12T04:43:26.755Z,6.90
2018-01-12T04:45:56.375Z,6.80
2018-01-12T04:48:25.227Z,6.80
2018-01-12T04:50:55.602Z,6.70
2018-01-12T04:53:24.453Z,6.70
2018-01-12T04:55:53.303Z,6.70
2018-01-12T04:58:22.171Z,6.80
2018-01-12T05:00:51.029Z,6.80
2018-01-12T05:03:20.671Z,6.90
2018-01-12T05:05:49.537Z,6.80
2018-01-12T05:08:19.176Z,6.80
2018-01-12T05:10:48.259Z,6.70
2018-01-12T05:13:17.200Z,6.60
2018-01-12T05:15:46.960Z,6.70
2018-01-12T05:18:15.855Z,6.60
2018-01-12T05:20:45.479Z,6.70
2018-01-12T05:23:14.330Z,6.60
2018-01-12T05:25:43.955Z,6.80
2018-01-12T05:28:12.770Z,6.70
2018-01-12T05:30:41.631Z,6.80
2018-01-12T05:33:10.451Z,6.80
2018-01-12T05:35:39.283Z,6.80
2018-01-12T05:38:08.771Z,6.70
2018-01-12T05:40:37.634Z,6.70
2018-01-12T05:43:06.483Z,6.70
2018-01-12T05:45:35.411Z,6.60
2018-01-12T05:48:04.263Z,6.70
2018-01-12T05:50:33.121Z,6.70
2018-01-12T05:53:02.726Z,6.60
2018-01-12T05:55:32.358Z,6.60
2018-01-12T05:58:01.205Z,6.60
2018-01-12T06:00:30.145Z,6.70
2018-01-12T06:03:10.886Z,6.80
2018-01-12T06:05:52.278Z,6.90
2018-01-12T06:08:21.801Z,6.80
2018-01-12T06:10:50.644Z,6.80
2018-01-12T06:13:21.125Z,6.70
2018-01-12T06:15:49.967Z,6.70
2018-01-12T06:18:19.582Z,6.70
2018-01-12T06:20:49.726Z,6.70
2018-01-12T06:23:18.577Z,6.60
2018-01-12T06:25:47.431Z,6.60
2018-01-12T06:28:16.273Z,6.70
2018-01-12T06:30:45.891Z,6.70
2018-01-12T06:33:14.769Z,6.60
2018-01-12T06:35:44.354Z,6.50
2018-01-12T06:38:13.203Z,6.50
2018-01-12T06:40:42.061Z,6.50
2018-01-12T06:43:10.926Z,6.50
2018-01-12T06:45:39.765Z,6.40
2018-01-12T06:48:09.390Z,6.30
2018-01-12T06:50:39.169Z,6.30
2018-01-12T06:53:08.005Z,6.30
2018-01-12T06:55:36.861Z,6.30
2018-01-12T06:58:06.470Z,6.30
2018-01-12T07:00:36.101Z,6.30
2018-01-12T07:03:04.959Z,6.20
2018-01-12T07:05:34.986Z,6.50
2018-01-12T07:08:04.594Z,6.60
2018-01-12T07:10:34.174Z,6.50
2018-01-12T07:13:03.114Z,6.60
2018-01-12T07:15:31.980Z,6.70
2018-01-12T07:18:00.852Z,6.70
2018-01-12T07:20:41.736Z,6.70
2018-01-12T07:23:23.266Z,6.80
2018-01-12T07:25:52.755Z,6.70
2018-01-12T07:28:21.598Z,6.70
2018-01-12T07:30:50.437Z,6.70
2018-01-12T07:33:20.005Z,6.80
2018-01-12T07:35:48.826Z,6.70
2018-01-12T07:38:18.436Z,6.60
2018-01-12T07:40:47.295Z,6.60
2018-01-12T07:43:16.898Z,6.50
2018-01-12T07:45:46.531Z,6.40
2018-01-12T07:48:15.737Z,6.40
2018-01-12T07:50:44.591Z,6.30
2018-01-12T07:53:19.934Z,6.20
2018-01-12T07:55:49.564Z,6.30
2018-01-12T07:58:18.458Z,6.20
2018-01-12T08:00:53.470Z,6.30
2018-01-12T08:03:22.323Z,6.40
2018-01-12T08:05:51.165Z,6.50
2018-01-12T08:08:20.017Z,6.60
2018-01-12T08:10:49.647Z,6.60
2018-01-12T08:13:18.529Z,6.50
2018-01-12T08:15:48.188Z,6.80
2018-01-12T08:18:17.630Z,6.80
2018-01-12T08:20:48.202Z,6.90
2018-01-12T08:23:17.057Z,6.80
2018-01-12T08:25:46.705Z,6.90
2018-01-12T08:28:15.557Z,6.90
2018-01-12T08:30:45.185Z,6.90
2018-01-12T08:33:14.036Z,6.80
2018-01-12T08:35:42.879Z,6.80
2018-01-12T08:38:11.755Z,6.80
2018-01-12T08:40:40.577Z,6.80
2018-01-12T08:43:09.453Z,6.80
2018-01-12T08:45:38.305Z,6.80
2018-01-12T08:48:07.950Z,6.90
2018-01-12T08:50:36.785Z,6.80
2018-01-12T08:53:05.638Z,6.90
2018-01-12T08:55:34.506Z,7.00
2018-01-12T08:58:04.330Z,7.00
2018-01-12T09:00:33.186Z,7.10
2018-01-12T09:03:02.793Z,7.10
2018-01-12T09:05:32.433Z,7.00
2018-01-12T09:08:01.271Z,7.00
2018-01-12T09:10:30.264Z,7.00
2018-01-12T09:12:59.121Z,7.10
2018-01-12T09:15:28.778Z,7.10
2018-01-12T09:18:00.471Z,7.10
2018-01-12T09:20:34.292Z,7.10
2018-01-12T09:23:11.992Z,7.20
2018-01-12T09:25:41.569Z,7.10
2018-01-12T09:28:10.443Z,7.10
2018-01-12T09:30:39.837Z,7.20
2018-01-12T09:33:09.513Z,7.30
2018-01-12T09:35:38.343Z,7.30
2018-01-12T09:41:11.775Z,7.30
2018-01-12T09:43:40.630Z,7.30
2018-01-12T09:46:10.249Z,7.40
2018-01-12T09:48:39.285Z,7.30
2018-01-12T09:51:08.097Z,7.40
2018-01-12T09:53:37.701Z,7.40
2018-01-12T09:56:07.512Z,7.40
2018-01-12T09:58:37.123Z,7.40
2018-01-12T10:04:02.961Z,7.40
2018-01-12T10:06:32.133Z,7.40
2018-01-12T10:09:00.993Z,7.40
2018-01-12T10:11:29.818Z,7.30
2018-01-12T10:13:58.666Z,7.30
2018-01-12T10:16:27.502Z,7.40
2018-01-12T10:18:56.344Z,7.40
2018-01-12T10:21:37.611Z,7.40
2018-01-12T10:24:07.218Z,7.50
2018-01-12T10:26:36.086Z,7.40
2018-01-12T10:29:06.508Z,7.50
2018-01-12T10:34:45.171Z,7.50
2018-01-12T10:37:14.022Z,7.40
2018-01-12T10:39:54.702Z,7.50
2018-01-12T10:42:24.332Z,7.50
2018-01-12T10:44:53.169Z,7.50
2018-01-12T10:47:26.806Z,7.50
2018-01-12T10:50:17.219Z,7.50
2018-01-12T10:52:48.997Z,7.50
2018-01-12T10:55:17.876Z,7.50
2018-01-12T10:57:46.714Z,7.50
2018-01-12T11:00:32.311Z,7.50
2018-01-12T11:03:01.151Z,7.60
2018-01-12T11:05:30.766Z,7.50
2018-01-12T11:07:59.715Z,7.50
2018-01-12T11:10:28.555Z,7.50
2018-01-12T11:12:57.489Z,7.60
2018-01-12T11:15:26.318Z,7.60
2018-01-12T11:17:55.930Z,7.60
2018-01-12T11:20:25.585Z,7.60
2018-01-12T11:22:54.417Z,7.50
2018-01-12T11:25:23.800Z,7.60
2018-01-12T11:27:52.626Z,7.50
2018-01-12T11:30:22.234Z,7.60
2018-01-12T11:32:51.118Z,7.50
2018-01-12T11:35:24.621Z,7.60
2018-01-12T11:37:54.228Z,7.60
2018-01-12T11:40:23.841Z,7.60
2018-01-12T11:42:52.752Z,7.60
2018-01-12T11:45:21.823Z,7.70
2018-01-12T11:47:50.662Z,7.70
2018-01-12T11:50:19.522Z,7.60
2018-01-12T11:52:49.272Z,7.70
2018-01-12T11:55:18.650Z,7.60
2018-01-12T11:57:48.250Z,7.80
2018-01-12T12:00:17.882Z,7.80
2018-01-12T12:02:46.731Z,7.80
2018-01-12T12:05:15.570Z,7.80
2018-01-12T12:07:44.419Z,7.70
2018-01-12T12:10:13.250Z,7.60
2018-01-12T12:12:42.102Z,7.60
2018-01-12T12:15:11.733Z,7.50
2018-01-12T12:17:41.241Z,7.50
2018-01-12T12:20:10.086Z,7.40
2018-01-12T12:22:38.947Z,7.40
2018-01-12T12:25:07.810Z,7.50
2018-01-12T12:27:37.435Z,7.60
2018-01-12T12:30:06.288Z,7.60
2018-01-12T12:32:35.909Z,7.70
2018-01-12T12:35:04.767Z,7.70
2018-01-12T12:37:35.405Z,7.60
2018-01-12T12:40:05.051Z,7.60
2018-01-12T12:42:33.878Z,7.60
2018-01-12T12:45:02.722Z,7.60
2018-01-12T12:47:32.689Z,7.50
2018-01-12T12:50:01.530Z,7.40
2018-01-12T12:52:31.614Z,7.60
2018-01-12T12:55:00.505Z,7.60
2018-01-12T12:57:29.362Z,7.60
2018-01-12T12:59:58.999Z,7.80
2018-01-12T13:02:27.858Z,7.70
2018-01-12T13:04:56.693Z,7.70
2018-01-12T13:07:25.550Z,7.70
2018-01-12T13:09:54.764Z,7.60
2018-01-12T13:12:23.602Z,7.60
2018-01-12T13:14:52.461Z,7.60
2018-01-12T13:17:21.382Z,7.60
2018-01-12T13:19:51.030Z,7.70
2018-01-12T13:22:19.875Z,7.60
2018-01-12T13:24:49.498Z,7.70
2018-01-12T13:27:19.112Z,7.60
2018-01-12T13:29:48.429Z,7.60
2018-01-12T13:32:17.278Z,7.70
2018-01-12T13:34:46.168Z,7.80
2018-01-12T13:37:14.974Z,7.80
2018-01-12T13:39:44.594Z,7.70
2018-01-12T13:42:13.474Z,7.70
2018-01-12T13:44:43.103Z,7.60
2018-01-12T13:47:11.946Z,7.60
2018-01-12T13:49:40.997Z,7.60
2018-01-12T13:52:09.811Z,7.60
2018-01-12T13:54:38.662Z,7.50
2018-01-12T13:57:07.505Z,7.40
2018-01-12T13:59:36.385Z,7.50
2018-01-12T14:02:06.008Z,7.60
2018-01-12T14:04:35.621Z,7.60
2018-01-12T14:07:05.257Z,7.60
2018-01-12T14:09:34.099Z,7.60
2018-01-12T14:12:03.738Z,7.70
2018-01-12T14:14:32.592Z,7.70
2018-01-12T14:17:01.782Z,7.80
2018-01-12T14:19:30.633Z,7.80
2018-01-12T14:21:59.504Z,7.80
2018-01-12T14:24:28.345Z,7.80
2018-01-12T14:26:57.196Z,7.80
2018-01-12T14:29:26.053Z,7.90
2018-01-12T14:31:54.886Z,7.80
2018-01-12T14:34:23.780Z,7.80
2018-01-12T14:36:52.618Z,7.80
2018-01-12T14:39:22.277Z,7.60
2018-01-12T14:41:52.189Z,7.60
2018-01-12T14:44:21.068Z,7.70
2018-01-12T14:46:50.832Z,7.70
2018-01-12T14:49:19.711Z,7.70
2018-01-12T14:51:50.045Z,7.70
2018-01-12T14:54:19.688Z,7.70
2018-01-12T14:56:48.548Z,7.60
2018-01-12T14:59:17.423Z,7.70
2018-01-12T15:01:47.042Z,7.70
2018-01-12T15:04:15.901Z,7.60
2018-01-12T15:06:44.762Z,7.70
2018-01-12T15:09:13.606Z,7.80
2018-01-12T15:11:43.303Z,7.80
2018-01-12T15:14:12.162Z,7.70
2018-01-12T15:16:41.047Z,7.80
2018-01-12T15:19:09.878Z,7.80
2018-01-12T15:21:39.511Z,7.80
2018-01-12T15:24:08.604Z,7.80
2018-01-12T15:26:37.464Z,7.90
2018-01-12T15:29:07.489Z,7.90
2018-01-12T15:31:37.129Z,7.90
2018-01-12T15:34:05.995Z,7.80
2018-01-12T15:36:36.778Z,7.80
2018-01-12T15:39:05.613Z,7.70
2018-01-12T15:41:35.243Z,7.70
2018-01-12T15:44:04.343Z,7.60
2018-01-12T15:46:33.188Z,7.60
2018-01-12T15:49:02.370Z,7.60
2018-01-12T15:51:32.043Z,7.60
2018-01-12T15:54:00.887Z,7.50
2018-01-12T15:56:30.119Z,7.60
2018-01-12T15:58:59.674Z,7.50
2018-01-12T16:01:28.517Z,7.50
2018-01-12T16:03:57.362Z,7.50
2018-01-12T16:06:27.003Z,7.60
2018-01-12T16:08:55.890Z,7.50
2018-01-12T16:11:24.751Z,7.50
2018-01-12T16:13:54.382Z,7.50
2018-01-12T16:16:23.283Z,7.50
2018-01-12T16:18:52.122Z,7.50
2018-01-12T16:21:21.761Z,7.50
2018-01-12T16:23:50.621Z,7.40
2018-01-12T16:26:19.456Z,7.40
2018-01-12T16:28:48.424Z,7.30
2018-01-12T16:31:18.056Z,7.30
2018-01-12T16:33:46.920Z,7.20
2018-01-12T16:36:16.535Z,7.30
2018-01-12T16:38:45.388Z,7.30
2018-01-12T16:41:15.154Z,7.40
2018-01-12T16:43:44.034Z,7.30
2018-01-12T16:46:12.902Z,7.30
2018-01-12T16:48:42.534Z,7.30
2018-01-12T16:51:12.149Z,7.30
2018-01-12T16:53:41.790Z,7.30
2018-01-12T16:56:10.697Z,7.30
2018-01-12T16:58:39.543Z,7.30
2018-01-12T17:01:09.165Z,7.30
2018-01-12T17:03:38.006Z,7.30
2018-01-12T17:06:06.888Z,7.30
2018-01-12T17:08:35.736Z,7.40
2018-01-12T17:11:04.588Z,7.40
2018-01-12T17:13:35.052Z,7.40
2018-01-12T17:16:03.922Z,7.40
2018-01-12T17:18:33.662Z,7.40
2018-01-12T17:21:02.531Z,7.40
2018-01-12T17:23:33.198Z,7.40
2018-01-12T17:26:02.502Z,7.50
2018-01-12T17:28:31.358Z,7.50
2018-01-12T17:31:00.203Z,7.50
2018-01-12T17:33:29.050Z,7.50
2018-01-12T17:35:57.905Z,7.50
2018-01-12T17:38:27.538Z,7.50
2018-01-12T17:40:56.405Z,7.50
2018-01-12T17:43:26.031Z,7.50
2018-01-12T17:45:54.898Z,7.50
2018-01-12T17:48:24.604Z,7.60
2018-01-12T17:50:54.221Z,7.50
2018-01-12T17:53:23.078Z,7.50
2018-01-12T17:55:52.712Z,7.50
2018-01-12T17:58:22.369Z,7.50
2018-01-12T18:00:51.265Z,7.50
2018-01-12T18:03:20.946Z,7.50
2018-01-12T18:05:49.807Z,7.50
2018-01-12T18:08:18.674Z,7.50
2018-01-12T18:10:48.311Z,7.60
2018-01-12T18:13:17.158Z,7.50
2018-01-12T18:15:46.026Z,7.50
2018-01-12T18:18:14.878Z,7.60
2018-01-12T18:20:43.795Z,7.60
2018-01-12T18:23:12.658Z,7.50
2018-01-12T18:25:41.511Z,7.50
2018-01-12T18:28:11.150Z,7.50
2018-01-12T18:30:40.021Z,7.50
2018-01-12T18:33:09.653Z,7.50
2018-01-12T18:35:38.518Z,7.50
2018-01-12T18:38:08.133Z,7.50
2018-01-12T18:40:37.776Z,7.50
2018-01-12T18:43:07.743Z,7.50
2018-01-12T18:45:36.652Z,7.50
2018-01-12T18:48:05.528Z,7.50
2018-01-12T18:50:35.143Z,7.50
2018-01-12T18:53:04.006Z,7.50
2018-01-12T18:55:32.900Z,7.50
2018-01-12T18:58:01.746Z,7.50
2018-01-12T19:00:31.373Z,7.60
2018-01-12T19:03:00.262Z,7.60
2018-01-12T19:05:29.112Z,7.60
2018-01-12T19:07:58.953Z,7.50
2018-01-12T19:10:28.075Z,7.50
2018-01-12T19:12:56.926Z,7.50
2018-01-12T19:15:26.056Z,7.50
2018-01-12T19:17:54.920Z,7.50
2018-01-12T19:20:24.560Z,7.50
2018-01-12T19:22:53.925Z,7.50
2018-01-12T19:25:22.796Z,7.50
2018-01-12T19:27:51.653Z,7.50
2018-01-12T19:30:20.491Z,7.50
2018-01-12T19:32:50.130Z,7.50
2018-01-12T19:35:18.992Z,7.50
2018-01-12T19:37:48.614Z,7.60
2018-01-12T19:40:17.457Z,7.50
2018-01-12T19:42:46.319Z,7.60
2018-01-12T19:45:15.362Z,7.60
2018-01-12T19:47:44.198Z,7.60
2018-01-12T19:50:13.071Z,7.60
2018-01-12T19:52:41.948Z,7.50
2018-01-12T19:55:10.780Z,7.50
2018-01-12T19:57:39.649Z,7.60
2018-01-12T20:00:08.503Z,7.60
2018-01-12T20:02:37.399Z,7.60
2018-01-12T20:05:06.234Z,7.60
2018-01-12T20:07:35.095Z,7.60
2018-01-12T20:10:04.175Z,7.60
2018-01-12T20:12:33.414Z,7.60
2018-01-12T20:15:04.354Z,7.60
2018-01-12T20:17:33.222Z,7.60
2018-01-12T20:20:02.544Z,7.60
2018-01-12T20:22:32.769Z,7.60
2018-01-12T20:25:02.403Z,7.50
2018-01-12T20:27:32.031Z,7.60
2018-01-12T20:30:02.102Z,7.60
2018-01-12T20:32:32.158Z,7.50
2018-01-12T20:35:01.078Z,7.50
2018-01-12T20:37:30.306Z,7.50
2018-01-12T20:39:59.206Z,7.60
2018-01-12T20:42:28.055Z,7.60
2018-01-12T20:44:57.180Z,7.60
2018-01-12T20:47:26.045Z,7.60
2018-01-12T20:49:54.886Z,7.60
2018-01-12T20:52:24.940Z,7.60
2018-01-12T20:54:54.514Z,7.60
2018-01-12T20:57:23.391Z,7.60
2018-01-12T20:59:52.264Z,7.50
2018-01-12T21:02:21.144Z,7.50
2018-01-12T21:04:49.996Z,7.40
2018-01-12T21:07:18.843Z,7.50
2018-01-12T21:09:47.699Z,7.50
2018-01-12T21:12:17.357Z,7.50
2018-01-12T21:14:46.210Z,7.50
2018-01-12T21:17:15.133Z,7.50
2018-01-12T21:19:44.728Z,7.50
2018-01-12T21:22:13.751Z,7.40
2018-01-12T21:24:42.599Z,7.40
2018-01-12T21:27:11.500Z,7.40
2018-01-12T21:29:40.345Z,7.40
2018-01-12T21:32:09.981Z,7.30
2018-01-12T21:34:38.844Z,7.30
2018-01-12T21:37:07.672Z,7.30
2018-01-12T21:39:36.564Z,7.30
2018-01-12T21:42:05.408Z,7.30
2018-01-12T21:44:35.049Z,7.30
2018-01-12T21:47:03.899Z,7.30
2018-01-12T21:49:32.789Z,7.30
2018-01-12T21:52:03.181Z,7.20
2018-01-12T21:54:32.041Z,7.20
2018-01-12T21:57:01.664Z,7.30
2018-01-12T21:59:30.570Z,7.30
2018-01-12T22:01:59.429Z,7.40
2018-01-12T22:04:29.061Z,7.30
2018-01-12T22:06:57.914Z,7.20
2018-01-12T22:09:27.552Z,7.30
2018-01-12T22:11:56.423Z,7.30
2018-01-12T22:14:25.271Z,7.40
2018-01-12T22:16:54.138Z,7.40
2018-01-12T22:19:23.114Z,7.40
2018-01-12T22:21:51.974Z,7.40
2018-01-12T22:24:21.620Z,7.40
2018-01-12T22:26:50.475Z,7.40
2018-01-12T22:29:20.118Z,7.40
2018-01-12T22:31:48.973Z,7.40
2018-01-12T22:34:17.865Z,7.40
2018-01-12T22:36:47.469Z,7.30
2018-01-12T22:39:17.151Z,7.30
2018-01-12T22:41:45.974Z,7.20
2018-01-12T22:44:15.605Z,7.30
2018-01-12T22:46:44.456Z,7.30
2018-01-12T22:49:14.075Z,7.40
2018-01-12T22:51:43.712Z,7.30
2018-01-12T22:54:12.574Z,7.30
2018-01-12T22:56:41.416Z,7.40
2018-01-12T22:59:11.041Z,7.30
2018-01-12T23:01:39.896Z,7.30
2018-01-12T23:04:09.547Z,7.40
2018-01-12T23:06:38.395Z,7.40
2018-01-12T23:09:08.026Z,7.40
2018-01-12T23:11:36.902Z,7.30
2018-01-12T23:14:06.534Z,7.40
2018-01-12T23:16:35.399Z,7.30
2018-01-12T23:19:04.415Z,7.40
2018-01-12T23:21:33.280Z,7.40
2018-01-12T23:24:02.929Z,7.50
2018-01-12T23:26:31.798Z,7.40
2018-01-12T23:29:01.402Z,7.40
2018-01-12T23:31:31.067Z,7.40
2018-01-12T23:33:59.886Z,7.40
2018-01-12T23:36:29.519Z,7.50
2018-01-12T23:38:58.379Z,7.40
2018-01-12T23:41:28.022Z,7.50
2018-01-12T23:43:56.870Z,7.50
2018-01-12T23:46:26.526Z,7.50
2018-01-12T23:48:55.365Z,7.50
2018-01-12T23:51:25.031Z,7.50
2018-01-12T23:53:53.875Z,7.40
2018-01-12T23:56:23.528Z,7.50
2018-01-12T23:58:52.370Z,7.40
